Time;durP1;ratioP1;P1;durP2;ratioP2;P2;SDS_P1;SDS_P2;PMS_P1;PMS_P2;Temp;Humidity;BMP_temperature;BMP_pressure;BME280_temperature;BME280_humidity;BME280_pressure;Samples;Min_cycle;Max_cycle;Signal;HPM_P1;HPM_P2
2021/03/15 00:00:50;;;;;;;3.13;2.77;;;2.60;99.90;;;;;;4728045;30;20458;-80
2021/03/15 00:03:16;;;;;;;4.72;3.40;;;2.60;99.90;;;;;;4729287;30;20434;-80
2021/03/15 00:05:42;;;;;;;4.38;3.13;;;2.50;99.90;;;;;;4742382;30;20423;-80
2021/03/15 00:08:08;;;;;;;3.50;3.20;;;2.50;99.90;;;;;;4742793;30;20476;-80
2021/03/15 00:10:35;;;;;;;3.38;3.05;;;2.50;99.90;;;;;;4728198;30;20411;-80
2021/03/15 00:13:00;;;;;;;5.75;3.40;;;2.40;99.90;;;;;;4729373;30;20989;-80
2021/03/15 00:15:26;;;;;;;3.63;2.95;;;2.40;99.90;;;;;;4734054;30;20419;-80
2021/03/15 00:17:52;;;;;;;2.92;2.63;;;2.40;99.90;;;;;;4729860;30;20419;-80
2021/03/15 00:20:19;;;;;;;4.57;2.80;;;2.40;99.90;;;;;;4743831;30;20426;-79
2021/03/15 00:22:45;;;;;;;3.13;2.80;;;2.30;99.90;;;;;;4728620;30;20885;-80
2021/03/15 00:25:11;;;;;;;3.78;2.63;;;2.30;99.90;;;;;;4729124;30;20436;-80
2021/03/15 00:27:37;;;;;;;2.78;2.50;;;2.30;99.90;;;;;;4728066;30;20472;-79
2021/03/15 00:30:05;;;;;;;2.90;2.70;;;2.30;99.90;;;;;;4727622;30;20411;-83
2021/03/15 00:32:31;;;;;;;2.75;2.53;;;2.30;99.90;;;;;;4739080;30;20427;-80
2021/03/15 00:34:56;;;;;;;4.00;2.90;;;2.30;99.90;;;;;;4736104;30;20487;-79
2021/03/15 00:37:22;;;;;;;2.80;2.60;;;2.30;99.90;;;;;;4717347;30;20442;-79
2021/03/15 00:39:48;;;;;;;2.95;2.65;;;2.30;99.90;;;;;;4729087;30;20430;-79
2021/03/15 00:42:14;;;;;;;3.65;2.70;;;2.30;99.90;;;;;;4728799;30;20427;-80
2021/03/15 00:44:39;;;;;;;3.73;3.20;;;2.40;99.90;;;;;;4728894;30;20439;-79
2021/03/15 00:47:06;;;;;;;3.25;2.95;;;2.40;99.90;;;;;;4726990;30;20960;-79
2021/03/15 00:49:31;;;;;;;3.00;2.80;;;2.40;99.90;;;;;;4727468;30;20434;-80
2021/03/15 00:51:57;;;;;;;3.20;2.77;;;2.50;99.90;;;;;;4720002;30;20444;-78
2021/03/15 00:54:23;;;;;;;3.23;2.63;;;2.50;99.90;;;;;;4742189;30;20471;-77
2021/03/15 00:56:51;;;;;;;4.00;3.17;;;2.50;99.90;;;;;;4708111;30;20474;-77
2021/03/15 00:59:18;;;;;;;3.38;3.08;;;2.50;99.90;;;;;;4721112;30;20505;-79
2021/03/15 01:01:45;;;;;;;3.10;2.83;;;2.60;99.90;;;;;;4724861;30;20577;-77
2021/03/15 01:04:13;;;;;;;3.33;2.97;;;2.70;99.90;;;;;;4732470;30;20474;-78
2021/03/15 01:06:45;;;;;;;3.00;2.70;;;2.60;99.90;;;;;;4741838;30;20493;-80
2021/03/15 01:09:22;;;;;;;2.78;2.58;;;2.60;99.90;;;;;;4728757;30;20432;-77
2021/03/15 01:11:53;;;;;;;3.15;2.85;;;2.60;99.90;;;;;;4704511;30;20428;-76
2021/03/15 01:14:19;;;;;;;3.22;2.58;;;2.50;99.90;;;;;;4727422;30;20512;-81
2021/03/15 01:16:58;;;;;;;3.30;2.63;;;2.60;99.90;;;;;;4707200;30;20441;-78
2021/03/15 01:19:27;;;;;;;3.38;3.08;;;2.40;99.90;;;;;;4736850;30;20481;-79
2021/03/15 01:21:53;;;;;;;3.30;2.83;;;2.40;99.90;;;;;;4716135;30;20448;-77
2021/03/15 01:24:18;;;;;;;2.90;2.70;;;2.40;99.90;;;;;;4755499;30;20954;-79
2021/03/15 01:26:44;;;;;;;3.13;2.83;;;2.30;99.90;;;;;;4729236;30;21002;-78
2021/03/15 01:29:10;;;;;;;4.32;2.78;;;2.30;99.90;;;;;;4707331;30;20455;-78
2021/03/15 01:31:36;;;;;;;3.17;2.88;;;2.30;99.90;;;;;;4723715;30;20462;-79
2021/03/15 01:34:02;;;;;;;3.03;2.80;;;2.30;99.90;;;;;;4726045;30;20452;-78
2021/03/15 01:36:27;;;;;;;3.03;2.72;;;2.30;99.90;;;;;;4760658;30;20495;-77
2021/03/15 01:38:53;;;;;;;3.47;2.78;;;2.20;99.90;;;;;;4751605;30;20436;-77
2021/03/15 01:41:19;;;;;;;2.97;2.70;;;2.20;99.90;;;;;;4727171;30;20521;-77
2021/03/15 01:43:45;;;;;;;3.43;3.13;;;2.20;99.90;;;;;;4723159;30;20460;-77
2021/03/15 01:46:11;;;;;;;3.08;2.80;;;2.20;99.90;;;;;;4726718;30;20440;-77
2021/03/15 01:48:36;;;;;;;2.92;2.72;;;2.20;99.90;;;;;;4711471;30;20513;-77
2021/03/15 01:51:03;;;;;;;3.20;2.90;;;2.10;99.90;;;;;;4744597;30;20436;-77
2021/03/15 01:53:29;;;;;;;2.65;2.45;;;2.10;99.90;;;;;;4715935;30;20440;-77
2021/03/15 01:55:55;;;;;;;3.07;2.87;;;2.10;99.90;;;;;;4745798;30;20440;-77
2021/03/15 01:58:20;;;;;;;3.27;2.90;;;2.10;99.90;;;;;;4731334;30;20459;-77
2021/03/15 02:00:46;;;;;;;3.10;2.83;;;2.10;99.90;;;;;;4717543;30;20436;-77
2021/03/15 02:03:17;;;;;;;2.95;2.75;;;2.10;99.90;;;;;;4725469;30;22182;-77
2021/03/15 02:05:43;;;;;;;2.72;2.47;;;2.20;99.90;;;;;;4725259;30;20436;-80
2021/03/15 02:08:09;;;;;;;3.57;3.07;;;2.30;99.90;;;;;;4722050;30;20431;-77
2021/03/15 02:10:34;;;;;;;3.23;2.70;;;2.10;99.90;;;;;;4736180;30;20429;-77
2021/03/15 02:13:27;;;;;;;3.50;3.17;;;2.00;99.90;;;;;;4753367;30;20429;-78
2021/03/15 02:15:59;;;;;;;3.67;3.22;;;2.00;99.90;;;;;;4752262;29;20435;-77
2021/03/15 02:18:33;;;;;;;3.20;2.90;;;2.00;99.90;;;;;;4749466;30;20426;-75
2021/03/15 02:21:37;;;;;;;3.15;2.60;;;2.00;99.90;;;;;;4739569;30;20421;-79
2021/03/15 02:24:23;;;;;;;3.90;2.80;;;2.00;99.90;;;;;;4762707;30;20465;-79
2021/03/15 02:27:27;;;;;;;3.10;2.80;;;2.00;99.90;;;;;;4728118;30;20492;-77
2021/03/15 02:30:25;;;;;;;3.13;2.83;;;2.10;99.90;;;;;;4719541;30;20424;-77
2021/03/15 02:33:22;;;;;;;3.15;2.85;;;2.00;99.90;;;;;;4741509;30;20460;-78
2021/03/15 02:35:48;;;;;;;3.28;2.70;;;2.00;99.90;;;;;;4744184;30;21230;-76
2021/03/15 02:38:13;;;;;;;2.97;2.78;;;2.00;99.90;;;;;;4734216;30;20440;-78
2021/03/15 02:40:47;;;;;;;3.20;2.90;;;1.90;99.90;;;;;;4737905;30;20445;-78
2021/03/15 02:43:25;;;;;;;3.13;2.90;;;1.90;99.90;;;;;;4710831;30;20449;-78
2021/03/15 02:45:54;;;;;;;2.97;2.67;;;1.90;99.90;;;;;;4712341;30;20440;-78
2021/03/15 02:48:20;;;;;;;3.28;2.97;;;1.90;99.90;;;;;;4723664;30;20469;-78
2021/03/15 02:50:46;;;;;;;3.20;2.90;;;1.90;99.90;;;;;;4737975;30;20435;-77
2021/03/15 02:53:14;;;;;;;3.47;3.03;;;1.90;99.90;;;;;;4737383;30;20463;-78
2021/03/15 02:55:39;;;;;;;3.35;2.92;;;1.90;99.90;;;;;;4739154;30;20531;-81
2021/03/15 02:58:05;;;;;;;4.60;2.97;;;1.90;99.90;;;;;;4723336;30;20428;-78
2021/03/15 03:00:31;;;;;;;3.00;2.80;;;2.00;99.90;;;;;;4727248;30;20422;-78
2021/03/15 03:02:57;;;;;;;3.37;2.87;;;2.00;99.90;;;;;;4726565;30;20440;-78
2021/03/15 03:05:23;;;;;;;3.83;3.13;;;2.00;99.90;;;;;;4717184;30;20648;-78
2021/03/15 03:07:50;;;;;;;2.88;2.67;;;2.00;99.90;;;;;;4734568;30;20862;-77
2021/03/15 03:10:17;;;;;;;3.10;2.80;;;2.00;99.90;;;;;;4766192;30;20435;-77
2021/03/15 03:12:43;;;;;;;3.03;2.70;;;2.00;99.90;;;;;;4730870;30;20443;-78
2021/03/15 03:15:11;;;;;;;2.90;2.70;;;2.00;99.90;;;;;;4732400;30;20424;-77
2021/03/15 03:17:38;;;;;;;3.72;2.83;;;2.00;99.90;;;;;;4721314;30;20440;-78
2021/03/15 03:20:14;;;;;;;3.92;2.65;;;2.20;99.90;;;;;;4728468;30;20428;-79
2021/03/15 03:22:41;;;;;;;2.95;2.65;;;2.10;99.90;;;;;;4720728;30;20430;-80
2021/03/15 03:25:09;;;;;;;3.70;3.03;;;2.10;99.90;;;;;;4739731;30;20490;-80
2021/03/15 03:27:36;;;;;;;3.15;2.90;;;2.20;99.90;;;;;;4714557;30;20431;-79
2021/03/15 03:30:02;;;;;;;3.28;2.97;;;2.20;99.90;;;;;;4741798;30;20467;-79
2021/03/15 03:32:28;;;;;;;3.50;3.20;;;2.20;99.90;;;;;;4726737;30;20458;-79
2021/03/15 03:34:54;;;;;;;3.10;2.90;;;2.20;99.90;;;;;;4729030;30;20815;-79
2021/03/15 03:37:19;;;;;;;5.10;3.35;;;2.20;99.90;;;;;;4761952;30;20458;-80
2021/03/15 03:39:46;;;;;;;3.22;2.92;;;2.20;99.90;;;;;;4729662;30;20423;-79
2021/03/15 03:42:12;;;;;;;3.40;3.10;;;2.20;99.90;;;;;;4732884;30;20505;-77
2021/03/15 03:44:37;;;;;;;3.63;2.83;;;2.20;99.90;;;;;;4758804;30;20442;-81
2021/03/15 03:47:03;;;;;;;3.63;3.00;;;2.30;99.90;;;;;;4729276;30;20416;-80
2021/03/15 03:49:29;;;;;;;2.95;2.67;;;2.30;99.90;;;;;;4711220;30;20466;-78
2021/03/15 03:52:00;;;;;;;3.40;3.10;;;2.30;99.90;;;;;;4742400;30;20433;-79
2021/03/15 03:54:30;;;;;;;3.63;3.03;;;2.30;99.90;;;;;;4725338;30;20464;-79
2021/03/15 03:57:07;;;;;;;3.42;2.95;;;2.30;99.90;;;;;;4754604;30;20432;-79
2021/03/15 03:59:33;;;;;;;3.85;2.90;;;2.30;99.90;;;;;;4757298;30;20428;-77
2021/03/15 04:02:01;;;;;;;3.57;3.27;;;2.30;99.90;;;;;;4725713;30;20421;-77
2021/03/15 04:04:29;;;;;;;3.50;3.00;;;2.30;99.90;;;;;;4721846;30;20441;-77
2021/03/15 04:06:55;;;;;;;3.63;3.33;;;2.30;99.90;;;;;;4735306;30;21002;-78
2021/03/15 04:09:30;;;;;;;3.20;2.90;;;2.30;99.90;;;;;;4735195;30;20447;-78
2021/03/15 04:12:18;;;;;;;4.28;3.50;;;2.50;99.90;;;;;;4742988;30;20461;-77
2021/03/15 04:14:55;;;;;;;3.15;2.95;;;2.40;99.90;;;;;;4728204;30;20432;-78
2021/03/15 04:17:24;;;;;;;3.55;3.25;;;2.40;99.90;;;;;;4731734;30;20436;-77
2021/03/15 04:19:56;;;;;;;3.85;3.25;;;2.50;99.90;;;;;;4721218;30;21006;-77
2021/03/15 04:22:23;;;;;;;3.67;3.35;;;2.40;99.90;;;;;;4704577;30;20440;-77
2021/03/15 04:24:48;;;;;;;3.55;3.17;;;2.40;99.90;;;;;;4738671;30;20489;-78
2021/03/15 04:27:14;;;;;;;2.90;2.70;;;2.60;99.90;;;;;;4726962;30;20432;-78
2021/03/15 04:29:40;;;;;;;3.40;3.10;;;2.50;99.90;;;;;;4735364;30;20789;-77
2021/03/15 04:32:09;;;;;;;4.72;3.70;;;2.50;99.90;;;;;;4715996;30;21124;-77
2021/03/15 04:34:35;;;;;;;3.30;3.00;;;2.50;99.90;;;;;;4715944;30;20438;-77
2021/03/15 04:37:01;;;;;;;3.37;3.00;;;2.50;99.90;;;;;;4761889;30;20426;-77
2021/03/15 04:39:28;;;;;;;3.08;2.80;;;2.50;99.90;;;;;;4727522;30;20492;-78
2021/03/15 04:41:54;;;;;;;3.70;3.40;;;2.50;99.90;;;;;;4711074;30;20507;-78
2021/03/15 04:44:19;;;;;;;3.80;3.15;;;2.60;99.90;;;;;;4713633;30;20521;-79
2021/03/15 04:46:45;;;;;;;3.70;3.30;;;2.60;99.90;;;;;;4712823;30;20932;-77
2021/03/15 04:49:11;;;;;;;3.40;3.10;;;2.60;99.90;;;;;;4715580;30;20446;-80
2021/03/15 04:51:37;;;;;;;3.30;3.00;;;2.60;99.90;;;;;;4721715;30;20433;-79
2021/03/15 04:54:03;;;;;;;4.25;3.50;;;2.60;99.90;;;;;;4722652;30;20487;-80
2021/03/15 04:56:29;;;;;;;3.77;3.20;;;2.50;99.90;;;;;;4722700;30;20424;-79
2021/03/15 04:58:55;;;;;;;3.10;2.80;;;2.50;99.90;;;;;;4707471;30;20424;-81
2021/03/15 05:01:20;;;;;;;3.50;3.20;;;2.50;99.90;;;;;;4707576;30;20787;-80
2021/03/15 05:03:49;;;;;;;3.73;3.30;;;2.50;99.90;;;;;;4722637;30;20505;-79
2021/03/15 05:06:14;;;;;;;3.38;3.05;;;2.50;99.90;;;;;;4721621;30;20412;-81
2021/03/15 05:08:43;;;;;;;4.00;3.60;;;2.50;99.90;;;;;;4722027;30;20922;-80
2021/03/15 05:11:09;;;;;;;3.72;3.20;;;2.40;99.90;;;;;;4708225;30;20421;-80
2021/03/15 05:13:34;;;;;;;3.55;3.25;;;2.40;99.90;;;;;;4721735;30;20424;-80
2021/03/15 05:16:01;;;;;;;3.40;3.10;;;2.40;99.90;;;;;;4695792;30;1244239;-80
2021/03/15 05:18:27;;;;;;;3.92;3.53;;;2.40;99.90;;;;;;4731137;30;20527;-81
2021/03/15 05:20:53;;;;;;;4.07;3.67;;;2.40;99.90;;;;;;4730766;30;20432;-80
2021/03/15 05:23:18;;;;;;;4.47;3.63;;;2.40;99.90;;;;;;4726309;30;20520;-80
2021/03/15 05:25:45;;;;;;;3.87;3.40;;;2.30;99.90;;;;;;4725857;30;20430;-80
2021/03/15 05:28:13;;;;;;;3.40;3.10;;;2.30;99.90;;;;;;4727259;30;20423;-80
2021/03/15 05:30:39;;;;;;;3.83;3.30;;;2.30;99.90;;;;;;4724000;30;20467;-80
2021/03/15 05:33:09;;;;;;;3.70;3.40;;;2.30;99.90;;;;;;4724433;30;20425;-80
2021/03/15 05:35:39;;;;;;;3.77;3.47;;;2.30;99.90;;;;;;4724016;30;20428;-80
2021/03/15 05:38:05;;;;;;;8.45;6.93;;;2.30;99.90;;;;;;4709857;30;20432;-80
2021/03/15 05:40:31;;;;;;;8.50;7.57;;;2.30;99.90;;;;;;4719763;30;20424;-78
2021/03/15 05:43:15;;;;;;;4.55;3.78;;;2.30;99.90;;;;;;4733174;30;20420;-80
2021/03/15 05:46:14;;;;;;;4.35;3.95;;;2.30;99.90;;;;;;4749253;30;20420;-79
2021/03/15 05:48:43;;;;;;;4.10;3.60;;;2.20;99.90;;;;;;4750049;30;20444;-78
2021/03/15 05:51:23;;;;;;;6.22;4.82;;;2.20;99.90;;;;;;4762005;30;20943;-78
2021/03/15 05:53:58;;;;;;;4.57;4.15;;;2.20;99.90;;;;;;4774275;30;20474;-78
2021/03/15 05:56:38;;;;;;;4.57;3.95;;;2.20;99.90;;;;;;4748324;30;20407;-79
2021/03/15 05:59:35;;;;;;;3.88;3.55;;;2.20;99.90;;;;;;4733912;30;20416;-80
2021/03/15 06:02:39;;;;;;;3.87;3.50;;;2.20;99.90;;;;;;4740559;30;20421;-78
2021/03/15 06:05:20;;;;;;;4.13;3.72;;;2.20;99.90;;;;;;4752350;30;21081;-76
2021/03/15 06:07:48;;;;;;;4.35;3.97;;;2.20;99.90;;;;;;4729226;30;20504;-77
2021/03/15 06:10:36;;;;;;;4.28;3.88;;;2.20;99.90;;;;;;4733930;30;20426;-78
2021/03/15 06:13:22;;;;;;;4.23;3.80;;;2.20;99.90;;;;;;4732369;30;20424;-77
2021/03/15 06:15:50;;;;;;;4.20;3.80;;;2.30;99.90;;;;;;4701681;30;20415;-78
2021/03/15 06:18:16;;;;;;;4.10;3.67;;;2.30;99.90;;;;;;4728326;30;20455;-78
2021/03/15 06:20:43;;;;;;;4.32;3.92;;;2.50;99.90;;;;;;4697303;30;20954;-77
2021/03/15 06:23:09;;;;;;;5.93;3.95;;;2.50;99.90;;;;;;4715554;30;20453;-76
2021/03/15 06:25:35;;;;;;;4.50;3.90;;;2.60;99.90;;;;;;4726509;30;20413;-77
2021/03/15 06:28:02;;;;;;;4.47;4.07;;;2.70;99.90;;;;;;4748183;30;20436;-76
2021/03/15 06:30:28;;;;;;;5.90;4.20;;;2.70;99.90;;;;;;4709547;30;20407;-76
2021/03/15 06:32:54;;;;;;;9.18;7.82;;;2.80;99.90;;;;;;4735432;30;20912;-78
2021/03/15 06:35:23;;;;;;;6.50;4.75;;;2.80;99.90;;;;;;4696350;30;21072;-77
2021/03/15 06:37:49;;;;;;;4.70;4.30;;;2.90;99.90;;;;;;4696739;30;20915;-77
2021/03/15 06:40:15;;;;;;;4.50;4.10;;;3.00;99.90;;;;;;4700156;30;20429;-78
2021/03/15 06:42:43;;;;;;;5.15;4.75;;;3.10;99.90;;;;;;4728155;30;20410;-77
2021/03/15 06:45:12;;;;;;;4.93;4.38;;;3.10;99.90;;;;;;4730817;30;20474;-80
2021/03/15 06:47:42;;;;;;;4.97;4.45;;;3.10;99.90;;;;;;4723468;30;20423;-78
2021/03/15 06:50:11;;;;;;;5.10;4.53;;;3.20;99.90;;;;;;4728007;30;20420;-77
2021/03/15 06:53:03;;;;;;;4.88;4.38;;;3.20;99.90;;;;;;4709213;30;20913;-77
2021/03/15 06:55:35;;;;;;;4.63;4.22;;;3.30;99.90;;;;;;4731176;30;20903;-79
2021/03/15 06:58:10;;;;;;;5.70;5.05;;;3.40;99.90;;;;;;4734751;30;20420;-79
2021/03/15 07:00:36;;;;;;;6.43;5.60;;;3.50;99.90;;;;;;4723940;30;20424;-78
2021/03/15 07:03:02;;;;;;;6.55;5.93;;;3.60;99.90;;;;;;4738125;30;20420;-78
2021/03/15 07:05:32;;;;;;;6.85;5.95;;;3.70;99.90;;;;;;4714371;30;20773;-78
2021/03/15 07:08:01;;;;;;;6.70;5.03;;;3.70;99.90;;;;;;4732629;30;20492;-78
2021/03/15 07:10:31;;;;;;;5.18;4.68;;;3.80;99.90;;;;;;4724578;30;20919;-77
2021/03/15 07:13:10;;;;;;;5.47;4.97;;;3.90;99.90;;;;;;4742922;30;20843;-75
2021/03/15 07:15:36;;;;;;;5.05;4.55;;;4.00;99.90;;;;;;4735041;30;20460;-77
2021/03/15 07:18:18;;;;;;;4.65;4.25;;;4.00;99.90;;;;;;4728924;30;20416;-81
2021/03/15 07:20:50;;;;;;;5.00;4.22;;;4.10;99.90;;;;;;4735911;30;20420;-77
2021/03/15 07:23:36;;;;;;;4.30;3.90;;;4.10;99.90;;;;;;4718222;30;20852;-77
2021/03/15 07:26:12;;;;;;;4.40;4.00;;;4.10;99.90;;;;;;4720166;30;20516;-77
2021/03/15 07:28:37;;;;;;;4.50;4.10;;;4.20;99.90;;;;;;4721432;30;20513;-77
2021/03/15 07:31:23;;;;;;;5.03;4.53;;;4.30;99.90;;;;;;4704931;30;20997;-77
2021/03/15 07:33:54;;;;;;;4.85;4.32;;;4.50;99.90;;;;;;4743385;30;20432;-78
2021/03/15 07:36:30;;;;;;;4.60;4.20;;;4.50;99.90;;;;;;4728334;30;20448;-77
2021/03/15 07:38:56;;;;;;;7.35;4.68;;;4.70;99.90;;;;;;4719001;30;20428;-77
2021/03/15 07:41:22;;;;;;;4.97;4.50;;;4.80;99.90;;;;;;4697595;30;20482;-77
2021/03/15 07:43:48;;;;;;;5.18;4.07;;;4.90;99.90;;;;;;4728381;30;20428;-77
2021/03/15 07:46:25;;;;;;;5.65;4.32;;;5.00;99.90;;;;;;4721439;30;20437;-77
2021/03/15 07:48:51;;;;;;;4.20;3.80;;;5.00;99.90;;;;;;4739407;30;20421;-77
2021/03/15 07:51:32;;;;;;;4.35;3.95;;;5.10;99.90;;;;;;4723178;30;20486;-77
2021/03/15 07:54:08;;;;;;;4.72;4.28;;;5.10;99.90;;;;;;4731657;30;20804;-76
2021/03/15 07:56:34;;;;;;;8.18;4.20;;;5.10;99.90;;;;;;4729894;30;20787;-77
2021/03/15 07:58:59;;;;;;;4.43;4.03;;;5.20;99.90;;;;;;4719603;30;20474;-78
2021/03/15 08:01:25;;;;;;;4.60;4.20;;;5.50;99.90;;;;;;4727394;30;20410;-77
2021/03/15 08:03:51;;;;;;;4.50;4.10;;;5.60;99.90;;;;;;4730499;30;20453;-77
2021/03/15 08:06:17;;;;;;;4.23;3.80;;;5.60;99.90;;;;;;4709735;30;20927;-77
2021/03/15 08:08:43;;;;;;;5.50;4.50;;;5.70;99.90;;;;;;4746003;30;20432;-79
2021/03/15 08:11:11;;;;;;;4.70;3.88;;;5.70;99.90;;;;;;4724958;30;20488;-77
2021/03/15 08:13:38;;;;;;;4.32;3.92;;;5.60;99.90;;;;;;4698499;30;20508;-77
2021/03/15 08:16:05;;;;;;;4.55;4.13;;;5.70;99.90;;;;;;4721759;30;20426;-77
2021/03/15 08:18:31;;;;;;;6.57;4.40;;;5.80;99.90;;;;;;4742675;30;20422;-77
2021/03/15 08:21:00;;;;;;;4.15;3.80;;;5.90;99.90;;;;;;4716043;30;20420;-78
2021/03/15 08:23:25;;;;;;;4.65;4.25;;;5.90;99.90;;;;;;4712145;30;20444;-77
2021/03/15 08:25:52;;;;;;;4.57;4.15;;;5.90;99.90;;;;;;4716432;30;20435;-78
2021/03/15 08:28:18;;;;;;;4.40;4.00;;;6.00;99.90;;;;;;4729191;30;20443;-79
2021/03/15 08:30:51;;;;;;;4.80;4.20;;;6.20;99.90;;;;;;4727170;30;20452;-76
2021/03/15 08:33:18;;;;;;;5.18;4.38;;;6.20;99.90;;;;;;4726486;30;20420;-77
2021/03/15 08:35:44;;;;;;;4.43;4.03;;;6.10;99.90;;;;;;4721747;30;20467;-77
2021/03/15 08:38:10;;;;;;;4.88;3.60;;;6.20;99.90;;;;;;4719432;30;20426;-77
2021/03/15 08:40:44;;;;;;;3.53;3.22;;;6.20;99.90;;;;;;4717608;30;20775;-76
2021/03/15 08:43:19;;;;;;;4.35;3.47;;;6.10;99.90;;;;;;4747107;30;20451;-78
2021/03/15 08:46:20;;;;;;;3.63;3.13;;;6.20;99.90;;;;;;4720233;30;20472;-77
2021/03/15 08:48:46;;;;;;;3.28;2.97;;;6.10;99.90;;;;;;4732590;30;20499;-77
2021/03/15 08:51:30;;;;;;;4.03;3.30;;;6.10;99.90;;;;;;4744274;30;20498;-77
2021/03/15 08:53:56;;;;;;;3.33;3.00;;;6.10;99.90;;;;;;4729317;30;20571;-78
2021/03/15 08:56:21;;;;;;;3.30;3.00;;;6.10;99.90;;;;;;4716580;30;20990;-77
2021/03/15 08:58:51;;;;;;;3.35;3.05;;;6.10;99.90;;;;;;4753818;30;20420;-77
2021/03/15 09:01:18;;;;;;;3.30;2.90;;;6.20;99.90;;;;;;4727154;30;20936;-76
2021/03/15 09:03:56;;;;;;;4.85;3.05;;;6.30;99.90;;;;;;4716987;30;20433;-77
2021/03/15 09:06:33;;;;;;;3.40;2.95;;;6.50;99.90;;;;;;4731529;30;20420;-76
2021/03/15 09:09:25;;;;;;;2.90;2.70;;;6.60;99.90;;;;;;4731319;30;20420;-79
2021/03/15 09:11:52;;;;;;;3.40;3.10;;;6.60;99.90;;;;;;4724250;30;20424;-77
2021/03/15 09:14:21;;;;;;;3.25;2.95;;;6.50;99.90;;;;;;4730593;30;20498;-77
2021/03/15 09:16:48;;;;;;;3.10;2.72;;;6.60;99.90;;;;;;4733994;30;20433;-78
2021/03/15 09:19:27;;;;;;;4.00;2.90;;;6.60;99.90;;;;;;4730974;30;20791;-78
2021/03/15 09:21:59;;;;;;;3.58;3.08;;;6.60;99.90;;;;;;4733862;30;20833;-78
2021/03/15 09:24:42;;;;;;;2.50;2.30;;;6.60;99.90;;;;;;4719367;30;20428;-77
2021/03/15 09:27:32;;;;;;;2.50;2.30;;;6.70;99.90;;;;;;4738933;30;20451;-78
2021/03/15 09:30:05;;;;;;;2.60;2.40;;;6.70;99.90;;;;;;4721748;30;20440;-78
2021/03/15 09:32:35;;;;;;;2.25;2.05;;;6.70;99.90;;;;;;4730930;30;20527;-78
2021/03/15 09:35:23;;;;;;;2.58;2.38;;;6.60;99.90;;;;;;4734383;30;20988;-79
2021/03/15 09:38:05;;;;;;;2.60;2.40;;;6.60;99.90;;;;;;4733398;30;20464;-81
2021/03/15 09:40:37;;;;;;;3.00;2.70;;;6.70;99.90;;;;;;4728172;30;20463;-78
2021/03/15 09:43:05;;;;;;;3.25;2.90;;;6.60;99.90;;;;;;4747593;30;20424;-78
2021/03/15 09:45:34;;;;;;;2.70;2.50;;;6.60;99.90;;;;;;4718055;30;20427;-78
2021/03/15 09:48:02;;;;;;;3.03;2.83;;;6.50;99.90;;;;;;4733812;30;21120;-78
2021/03/15 09:50:30;;;;;;;4.38;3.28;;;6.50;99.90;;;;;;4726991;30;20433;-77
2021/03/15 09:53:10;;;;;;;3.33;3.03;;;6.40;99.90;;;;;;4731491;30;20424;-78
2021/03/15 09:55:37;;;;;;;3.45;2.90;;;6.30;99.90;;;;;;4717883;30;20420;-77
2021/03/15 09:58:06;;;;;;;3.35;3.00;;;6.30;99.90;;;;;;4716478;30;20417;-78
2021/03/15 10:00:43;;;;;;;3.40;3.10;;;6.40;99.90;;;;;;4709610;30;20496;-78
2021/03/15 10:03:23;;;;;;;3.35;3.05;;;6.40;99.90;;;;;;4719393;30;20436;-78
2021/03/15 10:06:07;;;;;;;2.88;2.67;;;6.30;99.90;;;;;;4727706;30;20420;-78
2021/03/15 10:08:53;;;;;;;3.13;2.90;;;6.20;99.90;;;;;;4716231;30;20490;-78
2021/03/15 10:11:43;;;;;;;3.20;2.90;;;6.20;99.90;;;;;;4729391;30;20984;-78
2021/03/15 10:14:28;;;;;;;3.70;2.80;;;6.20;99.90;;;;;;4728750;30;20417;-79
2021/03/15 10:17:20;;;;;;;3.90;3.10;;;6.20;99.90;;;;;;4729235;30;20438;-80
2021/03/15 10:19:54;;;;;;;3.03;2.83;;;6.20;99.90;;;;;;4707132;30;20454;-78
2021/03/15 10:22:20;;;;;;;2.90;2.70;;;6.30;99.90;;;;;;4734571;30;20469;-80
2021/03/15 10:24:51;;;;;;;4.20;3.03;;;6.20;99.90;;;;;;4719981;30;20436;-81
2021/03/15 10:27:24;;;;;;;3.35;2.95;;;6.10;99.90;;;;;;4707635;30;20930;-80
2021/03/15 10:29:52;;;;;;;2.90;2.70;;;6.10;99.90;;;;;;4733403;30;20940;-83
2021/03/15 10:32:26;;;;;;;2.83;2.63;;;6.00;99.90;;;;;;4734160;30;20427;-82
2021/03/15 10:35:10;;;;;;;3.92;2.70;;;6.00;99.90;;;;;;4736790;30;20493;-81
2021/03/15 10:38:01;;;;;;;3.20;2.90;;;5.90;99.90;;;;;;4730384;30;20450;-81
2021/03/15 10:40:47;;;;;;;3.42;3.13;;;5.80;99.90;;;;;;4735761;30;20419;-80
2021/03/15 10:43:18;;;;;;;3.20;2.90;;;5.80;99.90;;;;;;4727129;30;20447;-80
2021/03/15 10:45:45;;;;;;;3.97;2.88;;;5.80;99.90;;;;;;4724491;30;20496;-80
2021/03/15 10:48:12;;;;;;;3.25;2.95;;;5.80;99.90;;;;;;4741886;30;20415;-81
2021/03/15 10:50:50;;;;;;;3.38;3.08;;;5.90;99.90;;;;;;4753148;30;20415;-82
2021/03/15 10:53:22;;;;;;;3.42;3.08;;;5.80;99.90;;;;;;4741936;30;20421;-80
2021/03/15 10:55:48;;;;;;;3.28;3.03;;;5.80;99.90;;;;;;4726966;30;20425;-80
2021/03/15 10:58:18;;;;;;;3.10;2.90;;;5.90;99.90;;;;;;4754954;30;20434;-80
2021/03/15 11:01:06;;;;;;;3.25;2.92;;;5.80;99.90;;;;;;4730664;30;20435;-81
2021/03/15 11:03:37;;;;;;;2.72;2.53;;;5.70;99.90;;;;;;4735015;30;20439;-80
2021/03/15 11:06:14;;;;;;;3.20;3.00;;;5.60;99.90;;;;;;4711682;30;20425;-80
2021/03/15 11:08:54;;;;;;;3.17;2.88;;;5.70;99.90;;;;;;4749016;30;20430;-81
2021/03/15 11:11:22;;;;;;;3.05;2.75;;;5.60;99.90;;;;;;4734277;30;20433;-80
2021/03/15 11:13:54;;;;;;;3.08;2.88;;;5.50;99.90;;;;;;4738885;30;20418;-83
2021/03/15 11:16:21;;;;;;;2.90;2.70;;;5.50;99.90;;;;;;4744715;30;20477;-80
2021/03/15 11:18:48;;;;;;;3.55;3.08;;;5.50;99.90;;;;;;4723634;30;20452;-83
2021/03/15 11:21:15;;;;;;;3.25;2.95;;;5.60;99.90;;;;;;4712705;30;20424;-80
2021/03/15 11:23:51;;;;;;;3.03;2.83;;;5.70;99.90;;;;;;4715433;30;20792;-82
2021/03/15 11:26:48;;;;;;;3.80;2.88;;;5.70;99.90;;;;;;4726591;30;20421;-80
2021/03/15 11:29:22;;;;;;;3.30;3.00;;;5.70;99.90;;;;;;4708970;30;20421;-80
2021/03/15 11:31:52;;;;;;;2.80;2.60;;;5.60;99.90;;;;;;4702686;30;20428;-80
2021/03/15 11:34:22;;;;;;;3.40;3.10;;;5.60;99.90;;;;;;4722901;30;20420;-81
2021/03/15 11:36:53;;;;;;;3.00;2.80;;;5.50;99.90;;;;;;4714293;30;20437;-85
2021/03/15 11:39:27;;;;;;;3.22;2.97;;;5.50;99.90;;;;;;4728985;30;20914;-82
2021/03/15 11:42:00;;;;;;;3.05;2.85;;;5.70;99.90;;;;;;4710799;30;20416;-82
2021/03/15 11:44:30;;;;;;;2.80;2.60;;;5.60;99.90;;;;;;4716436;30;20807;-81
2021/03/15 11:46:56;;;;;;;3.67;3.38;;;5.50;99.90;;;;;;4709694;30;20413;-81
2021/03/15 11:49:31;;;;;;;3.42;2.95;;;5.40;99.90;;;;;;4715220;30;20416;-83
2021/03/15 11:52:09;;;;;;;2.80;2.60;;;5.60;99.90;;;;;;4715209;30;20420;-83
2021/03/15 11:54:54;;;;;;;3.58;3.28;;;5.40;99.90;;;;;;4713289;30;20417;-80
2021/03/15 11:57:26;;;;;;;2.58;2.42;;;5.40;99.90;;;;;;4709839;30;20441;-82
2021/03/15 11:59:52;;;;;;;2.50;2.30;;;5.40;99.90;;;;;;4709140;30;20413;-81
2021/03/15 12:02:24;;;;;;;2.60;2.40;;;5.40;99.90;;;;;;4709908;30;20423;-80
2021/03/15 12:04:54;;;;;;;2.80;2.60;;;5.40;99.90;;;;;;4698469;30;20959;-79
2021/03/15 12:07:21;;;;;;;3.28;2.97;;;5.50;99.90;;;;;;4705953;30;20422;-81
2021/03/15 12:09:53;;;;;;;3.80;3.20;;;5.60;99.90;;;;;;4706188;30;20485;-87
2021/03/15 12:12:18;;;;;;;3.15;2.95;;;5.80;99.90;;;;;;4703709;30;20497;-83
2021/03/15 12:14:54;;;;;;;2.87;2.67;;;5.80;99.90;;;;;;4714935;30;20430;-80
2021/03/15 12:17:20;;;;;;;3.40;3.10;;;6.20;99.90;;;;;;4687037;30;20487;-81
2021/03/15 12:19:48;;;;;;;2.67;2.47;;;6.30;99.90;;;;;;4703289;30;20920;-81
2021/03/15 12:22:23;;;;;;;3.30;3.00;;;6.30;99.90;;;;;;4666530;30;20418;-83
2021/03/15 12:24:54;;;;;;;2.70;2.50;;;6.20;99.90;;;;;;4715097;30;20445;-82
2021/03/15 12:27:22;;;;;;;3.55;3.25;;;6.30;99.90;;;;;;4702129;30;20792;-80
2021/03/15 12:29:48;;;;;;;2.80;2.60;;;6.20;99.90;;;;;;4701755;30;20452;-81
2021/03/15 12:32:15;;;;;;;2.92;2.72;;;6.20;99.90;;;;;;4715405;30;20430;-81
2021/03/15 12:34:41;;;;;;;2.90;2.70;;;6.20;99.90;;;;;;4703176;30;20432;-81
2021/03/15 12:37:13;;;;;;;2.55;2.35;;;6.10;99.90;;;;;;4723392;30;20996;-81
2021/03/15 12:39:40;;;;;;;3.03;2.83;;;5.90;99.90;;;;;;4705072;30;20426;-81
2021/03/15 12:42:10;;;;;;;2.53;2.33;;;5.90;99.90;;;;;;4703776;30;20495;-80
2021/03/15 12:44:43;;;;;;;2.43;2.23;;;5.90;99.90;;;;;;4703524;30;20434;-80
2021/03/15 12:47:12;;;;;;;2.50;2.30;;;6.00;99.90;;;;;;4704106;30;20414;-81
2021/03/15 12:49:38;;;;;;;2.65;2.45;;;6.00;99.90;;;;;;4719403;30;20428;-81
2021/03/15 12:52:07;;;;;;;2.78;2.42;;;6.10;99.90;;;;;;4734714;30;20526;-80
2021/03/15 12:54:43;;;;;;;2.60;2.40;;;6.10;99.90;;;;;;4721306;30;20432;-81
2021/03/15 12:57:08;;;;;;;2.05;1.90;;;6.20;99.90;;;;;;4723181;30;20408;-81
2021/03/15 12:59:45;;;;;;;2.67;2.47;;;6.20;99.90;;;;;;4720982;30;20416;-81
2021/03/15 13:02:11;;;;;;;3.33;3.03;;;6.50;99.90;;;;;;4718133;30;20849;-81
2021/03/15 13:04:36;;;;;;;2.60;2.40;;;6.80;99.90;;;;;;4718963;30;20511;-83
2021/03/15 13:07:03;;;;;;;2.70;2.50;;;7.10;99.90;;;;;;4719290;30;20507;-80
2021/03/15 13:09:45;;;;;;;2.92;2.63;;;7.20;99.90;;;;;;4722972;30;20431;-83
2021/03/15 13:12:16;;;;;;;3.30;3.00;;;7.50;99.90;;;;;;4726408;30;20466;-81
2021/03/15 13:15:05;;;;;;;3.10;2.50;;;7.40;99.90;;;;;;4729511;30;20424;-83
2021/03/15 13:17:39;;;;;;;2.20;2.10;;;7.50;99.90;;;;;;4712866;30;20461;-80